createdAt,value
2022-10-10T00:02:35.840Z,14.45
2022-10-10T00:08:07.585Z,14.57
2022-10-10T00:13:39.286Z,14.57
2022-10-10T00:19:11.011Z,14.5
2022-10-10T00:24:42.738Z,14.46
2022-10-10T00:30:14.518Z,14.46
2022-10-10T00:35:46.253Z,14.44
2022-10-10T00:41:17.917Z,14.43
2022-10-10T00:46:49.719Z,14.52
2022-10-10T00:52:25.717Z,14.59
2022-10-10T00:57:57.453Z,14.76
2022-10-10T01:03:29.201Z,14.79
2022-10-10T01:09:00.883Z,14.78
2022-10-10T01:14:32.617Z,14.86
2022-10-10T01:20:04.574Z,14.83
2022-10-10T01:25:36.142Z,14.83
2022-10-10T01:31:07.814Z,14.87
2022-10-10T01:36:39.522Z,14.83
2022-10-10T01:42:11.254Z,14.88
2022-10-10T01:47:42.986Z,15.0
2022-10-10T01:53:19.126Z,14.88
2022-10-10T01:58:50.874Z,14.91
2022-10-10T02:04:22.766Z,14.89
2022-10-10T02:09:54.318Z,14.93
2022-10-10T02:15:26.005Z,14.66
2022-10-10T02:20:57.718Z,14.59
2022-10-10T02:26:29.445Z,14.64
2022-10-10T02:32:01.221Z,14.67
2022-10-10T02:37:32.918Z,14.73
2022-10-10T02:43:04.593Z,14.59
2022-10-10T02:48:36.320Z,14.63
2022-10-10T02:54:12.457Z,14.59
2022-10-10T02:59:44.165Z,14.63
2022-10-10T03:05:15.949Z,14.43
2022-10-10T03:10:47.647Z,14.47
2022-10-10T03:16:19.393Z,14.39
2022-10-10T03:21:51.090Z,14.42
2022-10-10T03:27:22.846Z,14.4
2022-10-10T03:32:54.528Z,14.32
2022-10-10T03:38:26.326Z,14.28
2022-10-10T03:43:57.977Z,14.19
2022-10-10T03:49:29.689Z,14.25
2022-10-10T03:55:05.806Z,14.23
2022-10-10T04:00:37.579Z,14.19
2022-10-10T04:06:09.281Z,14.18
2022-10-10T04:11:41.044Z,14.16
2022-10-10T04:17:12.693Z,14.18
2022-10-10T04:22:44.488Z,13.86
2022-10-10T04:28:16.172Z,14.0
2022-10-10T04:33:48.012Z,13.98
2022-10-10T04:39:19.645Z,13.92
2022-10-10T04:44:51.330Z,13.88
2022-10-10T04:50:23.107Z,13.85
2022-10-10T04:55:59.189Z,13.8
2022-10-10T05:01:30.930Z,13.75
2022-10-10T05:07:02.642Z,13.79
2022-10-10T05:12:34.453Z,13.74
2022-10-10T05:18:06.689Z,13.77
2022-10-10T05:23:37.920Z,13.76
2022-10-10T05:29:09.551Z,13.81
2022-10-10T05:34:41.370Z,13.75
2022-10-10T05:40:13.069Z,13.8
2022-10-10T05:45:44.792Z,13.83
2022-10-10T05:51:16.605Z,13.78
2022-10-10T05:56:52.605Z,13.78
2022-10-10T06:02:24.283Z,13.83
2022-10-10T06:08:05.641Z,13.92
2022-10-10T06:13:27.745Z,13.86
2022-10-10T06:18:59.488Z,13.98
2022-10-10T06:24:31.191Z,14.06
2022-10-10T06:30:02.910Z,13.67
2022-10-10T06:35:34.623Z,14.01
2022-10-10T06:41:06.368Z,14.06
2022-10-10T06:46:38.074Z,14.18
2022-10-10T06:52:09.814Z,14.27
2022-10-10T06:57:45.898Z,14.37
2022-10-10T07:03:17.614Z,14.55
2022-10-10T07:08:49.385Z,14.88
2022-10-10T07:14:21.058Z,14.83
2022-10-10T07:19:52.790Z,15.0
2022-10-10T07:25:24.526Z,15.06
2022-10-10T07:30:56.224Z,14.77
2022-10-10T07:36:27.914Z,14.98
2022-10-10T07:41:59.672Z,14.89
2022-10-10T07:47:31.401Z,15.27
2022-10-10T07:53:03.120Z,15.38
2022-10-10T07:58:39.232Z,15.59
2022-10-10T08:04:10.950Z,15.6
2022-10-10T08:09:42.679Z,15.81
2022-10-10T08:15:14.364Z,15.6
2022-10-10T08:20:46.189Z,15.83
2022-10-10T08:26:17.874Z,15.91
2022-10-10T08:31:49.542Z,16.2
2022-10-10T08:37:22.933Z,16.03
2022-10-10T08:42:53.288Z,16.36
2022-10-10T08:48:24.685Z,16.48
2022-10-10T08:53:56.485Z,16.59
2022-10-10T08:59:32.543Z,17.05
2022-10-10T09:05:04.301Z,17.14
2022-10-10T09:10:35.985Z,17.17
2022-10-10T09:16:07.774Z,17.12
2022-10-10T09:21:39.504Z,17.39
2022-10-10T09:27:11.194Z,17.3
2022-10-10T09:32:42.917Z,17.82
2022-10-10T09:38:14.611Z,17.74
2022-10-10T09:43:46.373Z,17.9
2022-10-10T09:49:18.094Z,18.38
2022-10-10T09:54:49.894Z,18.36
2022-10-10T10:00:25.880Z,18.67
2022-10-10T10:05:57.827Z,18.88
2022-10-10T10:11:29.438Z,18.9
2022-10-10T10:17:01.213Z,18.95
2022-10-10T10:22:32.937Z,19.27
2022-10-10T10:28:04.625Z,19.27
2022-10-10T10:33:36.415Z,19.39
2022-10-10T10:39:08.078Z,19.58
2022-10-10T10:44:39.854Z,19.49
2022-10-10T10:50:11.541Z,19.76
2022-10-10T10:55:43.266Z,20.08
2022-10-10T11:01:28.921Z,20.27
2022-10-10T11:07:13.638Z,20.26
2022-10-10T11:12:22.806Z,21.04
2022-10-10T11:17:54.521Z,21.47
2022-10-10T11:23:26.286Z,21.21
2022-10-10T11:28:58.149Z,21.67
2022-10-10T11:34:29.698Z,22.1
2022-10-10T11:40:01.402Z,22.36
2022-10-10T11:45:33.140Z,22.55
2022-10-10T11:51:04.884Z,22.73
2022-10-10T11:56:36.634Z,22.48
2022-10-10T12:02:12.758Z,23.02
2022-10-10T12:07:44.460Z,23.39
2022-10-10T12:13:16.212Z,23.05
2022-10-10T12:18:47.871Z,23.27
2022-10-10T12:24:19.587Z,23.63
2022-10-10T12:29:51.569Z,23.19
2022-10-10T12:35:23.039Z,22.62
2022-10-10T12:40:54.789Z,22.12
2022-10-10T12:46:26.439Z,22.66
2022-10-10T12:51:58.444Z,23.05
2022-10-10T12:57:29.924Z,22.83
2022-10-10T13:03:08.113Z,23.25
2022-10-10T13:08:39.825Z,23.27
2022-10-10T13:14:11.539Z,23.73
2022-10-10T13:19:43.225Z,23.85
2022-10-10T13:25:14.956Z,23.9
2022-10-10T13:30:46.750Z,23.95
2022-10-10T13:36:18.405Z,24.22
2022-10-10T13:41:50.245Z,23.86
2022-10-10T13:47:21.862Z,23.83
2022-10-10T13:52:53.594Z,23.86
2022-10-10T13:58:25.347Z,23.71
2022-10-10T14:04:01.418Z,23.19
2022-10-10T14:09:33.198Z,23.23
2022-10-10T14:15:04.927Z,23.23
2022-10-10T14:20:36.585Z,23.57
2022-10-10T14:26:08.301Z,23.54
2022-10-10T14:31:40.107Z,23.47
2022-10-10T14:37:11.847Z,23.69
2022-10-10T14:42:43.549Z,23.66
2022-10-10T14:48:15.313Z,23.52
2022-10-10T14:54:10.366Z,23.47
2022-10-10T14:59:18.830Z,23.43
2022-10-10T15:04:54.890Z,23.37
2022-10-10T15:10:34.709Z,23.32
2022-10-10T15:15:58.307Z,23.35
2022-10-10T15:21:30.041Z,23.34
2022-10-10T15:27:01.781Z,23.31
2022-10-10T15:32:33.605Z,23.32
2022-10-10T15:38:05.348Z,23.33
2022-10-10T15:43:37.078Z,23.21
2022-10-10T15:49:08.719Z,23.04
2022-10-10T15:54:40.430Z,22.82
2022-10-10T16:00:12.200Z,22.68
2022-10-10T16:05:50.318Z,22.53
2022-10-10T16:11:22.111Z,22.37
2022-10-10T16:16:53.721Z,22.21
2022-10-10T16:22:25.453Z,22.07
2022-10-10T16:27:57.202Z,21.89
2022-10-10T16:33:28.877Z,21.77
2022-10-10T16:39:00.597Z,21.65
2022-10-10T16:44:32.446Z,21.52
2022-10-10T16:50:04.166Z,21.41
2022-10-10T16:55:35.899Z,21.27
2022-10-10T17:01:08.025Z,21.11
2022-10-10T17:06:43.730Z,20.91
2022-10-10T17:12:15.469Z,20.75
2022-10-10T17:17:47.189Z,20.64
2022-10-10T17:23:18.901Z,20.59
2022-10-10T17:28:50.723Z,20.51
2022-10-10T17:34:22.405Z,20.47
2022-10-10T17:39:54.273Z,20.45
2022-10-10T17:45:25.837Z,20.42
2022-10-10T17:50:57.543Z,20.41
2022-10-10T17:56:29.451Z,20.43
2022-10-10T18:02:01.015Z,20.34
2022-10-10T18:07:37.108Z,20.34
2022-10-10T18:13:08.914Z,20.22
2022-10-10T18:18:40.612Z,18.88
2022-10-10T18:24:12.298Z,18.89
2022-10-10T18:29:44.159Z,18.55
2022-10-10T18:35:15.794Z,18.5
2022-10-10T18:40:47.474Z,18.83
2022-10-10T18:46:19.249Z,18.8
2022-10-10T18:51:50.969Z,18.76
2022-10-10T18:57:22.728Z,18.6
2022-10-10T19:02:54.372Z,18.46
2022-10-10T19:08:30.480Z,18.29
2022-10-10T19:14:02.205Z,18.26
2022-10-10T19:19:33.930Z,18.3
2022-10-10T19:25:05.704Z,17.73
2022-10-10T19:30:37.389Z,17.41
2022-10-10T19:36:09.158Z,17.07
2022-10-10T19:41:40.914Z,17.2
2022-10-10T19:47:12.620Z,16.99
2022-10-10T19:52:44.384Z,16.89
2022-10-10T19:58:16.077Z,17.23
2022-10-10T20:03:47.754Z,17.51
2022-10-10T20:09:25.847Z,17.44
2022-10-10T20:14:57.639Z,17.62
2022-10-10T20:20:29.312Z,17.82
2022-10-10T20:26:01.837Z,17.77
2022-10-10T20:31:32.803Z,17.87
2022-10-10T20:37:04.529Z,17.77
2022-10-10T20:42:36.258Z,17.44
2022-10-10T20:48:07.988Z,17.54
2022-10-10T20:53:39.763Z,17.33
2022-10-10T20:59:11.468Z,17.5
2022-10-10T21:04:43.154Z,17.37
2022-10-10T21:10:19.260Z,17.49
2022-10-10T21:15:50.978Z,17.61
2022-10-10T21:21:22.703Z,17.51
2022-10-10T21:26:54.405Z,17.42
2022-10-10T21:32:26.178Z,17.45
2022-10-10T21:37:57.884Z,17.51
2022-10-10T21:43:29.627Z,17.49
2022-10-10T21:49:01.331Z,17.5
2022-10-10T21:54:33.068Z,17.44
2022-10-10T22:00:04.989Z,17.52
2022-10-10T22:05:36.625Z,17.47
2022-10-10T22:11:12.740Z,17.42
2022-10-10T22:16:44.521Z,17.52
2022-10-10T22:22:16.674Z,17.42
2022-10-10T22:27:47.818Z,17.33
2022-10-10T22:33:19.717Z,17.33
2022-10-10T22:38:51.264Z,17.42
2022-10-10T22:44:23.030Z,17.53
2022-10-10T22:49:54.735Z,17.53
2022-10-10T22:55:26.458Z,17.32
2022-10-10T23:00:58.212Z,17.47
2022-10-10T23:06:29.963Z,17.47
2022-10-10T23:12:06.094Z,17.48
2022-10-10T23:17:37.807Z,17.48
2022-10-10T23:23:09.519Z,17.45
2022-10-10T23:28:41.355Z,17.39
2022-10-10T23:34:12.987Z,17.35
2022-10-10T23:39:44.787Z,17.31
2022-10-10T23:45:16.446Z,17.25
2022-10-10T23:50:48.234Z,17.18
2022-10-10T23:56:19.911Z,17.07
